Terminal Aerodrome Forecast
Issued by NWS

Home | Current Version | Previous Version | Text Only | Print | Product List | Glossary On
Versions: 1 2 3 4 5 6 7 8 9 10 11 12 13 14 15 16 17 18 19 20 21 22 23 24 25 26 27 28 29 30 31 32 33 34 35 36
000
FTUS41 KBOX 261507 AAA
TAFHYA
TAF AMD
KHYA 261507Z 2615/2712 05010KT P6SM OVC050
     FM261800 06014G20KT 4SM -SN OVC025
     FM262300 05019G32KT 1SM -SN OVC015
     FM270100 05020G34KT 1/2SM SN OVC015
     FM270300 04026G44KT 1/2SM SN OVC008
     FM270600 04028G54KT 1/4SM +RASN BLSN OVC008 WS020/05055KT=

USA.gov is the U.S. government's official web portal to all federal, state and local government web resources and services.